Orion — V7MA4 — position and weather

sailwx.info

Track history (hours):
 
Tides and Currents Weather Stations Pressure Air Temp Water Temp Dewpoint Dewpoint Depression Visibility Wind Speed Wind Dir Waves Ship Positions

Orion

Last reported at 2018-Jun-24 22:00 UTC. Time now 2018-Jun-24 22:10 UTC.
Position S 32°54' E 151°46'.

Length 229 m; draft 7.5 m.

Type: Cargo ship. MMSI: 538006338.

Date/timePositionNaut miles runAvg speedWind from/ knotsBaromVisibWave heightAir tempDewpointWater temp
2018-Jun-24 22:00S 32°54' E 151°46'0 0.0
2018-Jun-24 21:30S 32°54' E 151°46'0 0.0
2018-Jun-24 21:00S 32°54' E 151°46'0 0.0
2018-Jun-24 20:15S 32°54' E 151°46'0 0.0
2018-Jun-24 19:48S 32°54' E 151°46'0 0.0
2018-Jun-24 19:30S 32°54' E 151°46'0 0.0
2018-Jun-24 18:57S 32°54' E 151°46'0 0.0
2018-Jun-24 18:24S 32°54' E 151°46'0 0.0
2018-Jun-24 17:21S 32°54' E 151°46'0 0.0
2018-Jun-24 17:00S 32°54' E 151°46'0 0.0
2018-Jun-24 16:27S 32°54' E 151°46'0 0.0
2018-Jun-24 16:00S 32°54' E 151°46'0 0.0
2018-Jun-24 15:30S 32°54' E 151°46'0 0.0
2018-Jun-24 14:57S 32°54' E 151°46'0 0.0
2018-Jun-24 14:30S 32°54' E 151°46'0 0.0
2018-Jun-24 13:48S 32°54' E 151°46'0 0.0
2018-Jun-24 13:27S 32°54' E 151°46'0 0.0
2018-Jun-24 12:54S 32°54' E 151°46'0 0.0
2018-Jun-24 12:30S 32°54' E 151°46'0 0.0
2018-Jun-24 12:00S 32°54' E 151°46'0 0.0
2018-Jun-24 11:30S 32°54' E 151°46'0 0.0
2018-Jun-24 10:51S 32°54' E 151°46'0 0.0
2018-Jun-24 10:06S 32°54' E 151°46'0 0.0
2018-Jun-24 10:00S 32°54' E 151°46'0 0.0
2018-Jun-24 09:24S 32°54' E 151°46'0 0.0
2018-Jun-24 08:42S 32°54' E 151°46'0 0.0
2018-Jun-24 08:12S 32°54' E 151°46'0 0.0
2018-Jun-24 07:42S 32°54' E 151°46'0 0.0
2018-Jun-24 06:42S 32°54' E 151°46'0 0.0
2018-Jun-24 06:30S 32°54' E 151°46'0 0.0
2018-Jun-24 06:00S 32°54' E 151°46'0 0.0
2018-Jun-24 05:21S 32°54' E 151°46'0 0.0
2018-Jun-24 05:00S 32°54' E 151°46'0 0.0
2018-Jun-24 04:30S 32°54' E 151°46'0 0.0
2018-Jun-24 03:54S 32°54' E 151°46'0 0.0
2018-Jun-24 03:30S 32°54' E 151°46'0 0.0
2018-Jun-24 02:27S 32°54' E 151°46'0 0.0
2018-Jun-24 02:00S 32°54' E 151°46'0 0.0
2018-Jun-24 01:21S 32°54' E 151°46'0 0.0
2018-Jun-24 01:00S 32°54' E 151°46'0 0.0
2018-Jun-24 00:30S 32°54' E 151°46'0 0.0
2018-Jun-24 00:00S 32°54' E 151°46'0 0.0
2018-Jun-23 23:30S 32°54' E 151°46'0 0.0
2018-Jun-23 23:00S 32°54' E 151°46'0 0.0
2018-Jun-23 22:30S 32°54' E 151°46'0 0.0
2018-Jun-23 22:00S 32°54' E 151°46'0 0.0
2018-Jun-23 21:30S 32°54' E 151°46'0 0.0
2018-Jun-23 21:00S 32°54' E 151°46'0 0.0
2018-Jun-23 20:27S 32°54' E 151°46'0 0.0
2018-Jun-23 20:00S 32°54' E 151°46'0 0.0
2018-Jun-23 19:24S 32°54' E 151°46'0 0.0
2018-Jun-23 19:00S 32°54' E 151°46'0 0.0
2018-Jun-23 18:30S 32°54' E 151°46'0 0.0
2018-Jun-23 18:00S 32°54' E 151°46'0 0.0
2018-Jun-23 17:24S 32°54' E 151°46'0 0.0
2018-Jun-23 17:00S 32°54' E 151°46'0 0.0
2018-Jun-23 16:30S 32°54' E 151°46'0 0.0
2018-Jun-23 16:00S 32°54' E 151°46'0 0.0
2018-Jun-23 15:27S 32°54' E 151°46'0 0.0
2018-Jun-23 15:00S 32°54' E 151°46'1 1.6
2018-Jun-23 14:30S 32°53' E 151°46'2 3.9
2018-Jun-23 14:00S 32°55' E 151°47'4 8.4
2018-Jun-23 13:30S 32°57' E 151°52'2 4.7
2018-Jun-23 13:00S 32°59' E 151°52'4 8.6
2018-Jun-23 12:30S 33°02' E 151°48'1 1.5
2018-Jun-23 11:42S 33°03' E 151°47'0 0.1
2018-Jun-23 11:30S 33°03' E 151°47'0 0.0
2018-Jun-23 10:57S 33°03' E 151°47'0 0.1
2018-Jun-23 10:06S 33°03' E 151°47'0 0.1
2018-Jun-23 10:00S 33°03' E 151°47'0 0.0
2018-Jun-23 09:12S 33°03' E 151°47'0 0.0
2018-Jun-23 08:45S 33°03' E 151°47'0 0.0
2018-Jun-23 08:30S 33°03' E 151°47'0 0.0
2018-Jun-23 08:00S 33°03' E 151°47'0 0.0
2018-Jun-23 07:27S 33°03' E 151°47'0 0.0
2018-Jun-23 07:00S 33°03' E 151°47'0 0.0
2018-Jun-23 06:30S 33°03' E 151°47'0 0.0
2018-Jun-23 06:00S 33°03' E 151°47'0 0.0
2018-Jun-23 05:27S 33°03' E 151°47'0 0.0
2018-Jun-23 05:00S 33°03' E 151°47'0 0.0
2018-Jun-23 04:30S 33°03' E 151°47'0 0.0
2018-Jun-23 04:00S 33°03' E 151°47'0 0.1
2018-Jun-23 03:30S 33°03' E 151°47'0 0.2
2018-Jun-23 03:00S 33°03' E 151°47'0 0.1
2018-Jun-23 02:30S 33°03' E 151°47'0 0.0
2018-Jun-23 01:54S 33°03' E 151°47'0 0.0
2018-Jun-23 01:30S 33°03' E 151°47'0 0.1
2018-Jun-23 00:57S 33°03' E 151°47'0 0.0
2018-Jun-23 00:27S 33°03' E 151°47'0 0.1
2018-Jun-23 00:00S 33°03' E 151°47'0 0.2
2018-Jun-22 23:30S 33°03' E 151°47'0 0.1
2018-Jun-22 22:57S 33°03' E 151°47'0 0.0
2018-Jun-22 22:24S 33°03' E 151°47'0 0.1
2018-Jun-22 21:57S 33°03' E 151°47'0 0.0
2018-Jun-22 21:30S 33°03' E 151°47'0 0.1
2018-Jun-22 21:00S 33°03' E 151°47'0 0.0
2018-Jun-22 20:30S 33°03' E 151°47'0 0.1
2018-Jun-22 20:00S 33°03' E 151°47'0 0.0
2018-Jun-22 19:30S 33°03' E 151°47'0 0.1
2018-Jun-22 19:00S 33°03' E 151°47'1 2.3
2018-Jun-22 18:31S 33°02' E 151°49'510.5
2018-Jun-22 18:00S 32°58' E 151°53'714.0
2018-Jun-22 17:30S 32°57' E 152°01'714.2
2018-Jun-22 17:01S 32°56' E 152°09'713.8
2018-Jun-22 16:30S 32°56' E 152°17'713.5
2018-Jun-22 16:01S 32°54' E 152°25'713.3
2018-Jun-22 15:30S 32°52' E 152°33'612.6
2018-Jun-22 15:01S 32°49' E 152°39'612.2
2018-Jun-22 14:30S 32°46' E 152°45'612.0
2018-Jun-22 14:00S 32°41' E 152°50'612.6
2018-Jun-22 13:30S 32°36' E 152°54'  
Track history (hours):
 
Tides and Currents Weather Stations Pressure Air Temp Water Temp Dewpoint Dewpoint Depression Visibility Wind Speed Wind Dir Waves Ship Positions

Orion

Last reported at 2018-Jun-24 22:00 UTC. Time now 2018-Jun-24 22:10 UTC.
Position S 32°54' E 151°46'.

Length 229 m; draft 7.5 m.

Type: Cargo ship. MMSI: 538006338.

Date/timePositionNaut miles runAvg speedWind from/ knotsBaromVisibWave heightAir tempDewpointWater temp
2018-Jun-24 22:00S 32°54' E 151°46'0 0.0
2018-Jun-24 21:30S 32°54' E 151°46'0 0.0
2018-Jun-24 21:00S 32°54' E 151°46'0 0.0
2018-Jun-24 20:15S 32°54' E 151°46'0 0.0
2018-Jun-24 19:48S 32°54' E 151°46'0 0.0
2018-Jun-24 19:30S 32°54' E 151°46'0 0.0
2018-Jun-24 18:57S 32°54' E 151°46'0 0.0
2018-Jun-24 18:24S 32°54' E 151°46'0 0.0
2018-Jun-24 17:21S 32°54' E 151°46'0 0.0
2018-Jun-24 17:00S 32°54' E 151°46'0 0.0
2018-Jun-24 16:27S 32°54' E 151°46'0 0.0
2018-Jun-24 16:00S 32°54' E 151°46'0 0.0
2018-Jun-24 15:30S 32°54' E 151°46'0 0.0
2018-Jun-24 14:57S 32°54' E 151°46'0 0.0
2018-Jun-24 14:30S 32°54' E 151°46'0 0.0
2018-Jun-24 13:48S 32°54' E 151°46'0 0.0
2018-Jun-24 13:27S 32°54' E 151°46'0 0.0
2018-Jun-24 12:54S 32°54' E 151°46'0 0.0
2018-Jun-24 12:30S 32°54' E 151°46'0 0.0
2018-Jun-24 12:00S 32°54' E 151°46'0 0.0
2018-Jun-24 11:30S 32°54' E 151°46'0 0.0
2018-Jun-24 10:51S 32°54' E 151°46'0 0.0
2018-Jun-24 10:06S 32°54' E 151°46'0 0.0
2018-Jun-24 10:00S 32°54' E 151°46'0 0.0
2018-Jun-24 09:24S 32°54' E 151°46'0 0.0
2018-Jun-24 08:42S 32°54' E 151°46'0 0.0
2018-Jun-24 08:12S 32°54' E 151°46'0 0.0
2018-Jun-24 07:42S 32°54' E 151°46'0 0.0
2018-Jun-24 06:42S 32°54' E 151°46'0 0.0
2018-Jun-24 06:30S 32°54' E 151°46'0 0.0
2018-Jun-24 06:00S 32°54' E 151°46'0 0.0
2018-Jun-24 05:21S 32°54' E 151°46'0 0.0
2018-Jun-24 05:00S 32°54' E 151°46'0 0.0
2018-Jun-24 04:30S 32°54' E 151°46'0 0.0
2018-Jun-24 03:54S 32°54' E 151°46'0 0.0
2018-Jun-24 03:30S 32°54' E 151°46'0 0.0
2018-Jun-24 02:27S 32°54' E 151°46'0 0.0
2018-Jun-24 02:00S 32°54' E 151°46'0 0.0
2018-Jun-24 01:21S 32°54' E 151°46'0 0.0
2018-Jun-24 01:00S 32°54' E 151°46'0 0.0
2018-Jun-24 00:30S 32°54' E 151°46'0 0.0
2018-Jun-24 00:00S 32°54' E 151°46'0 0.0
2018-Jun-23 23:30S 32°54' E 151°46'0 0.0
2018-Jun-23 23:00S 32°54' E 151°46'0 0.0
2018-Jun-23 22:30S 32°54' E 151°46'0 0.0
2018-Jun-23 22:00S 32°54' E 151°46'0 0.0
2018-Jun-23 21:30S 32°54' E 151°46'0 0.0
2018-Jun-23 21:00S 32°54' E 151°46'0 0.0
2018-Jun-23 20:27S 32°54' E 151°46'0 0.0
2018-Jun-23 20:00S 32°54' E 151°46'0 0.0
2018-Jun-23 19:24S 32°54' E 151°46'0 0.0
2018-Jun-23 19:00S 32°54' E 151°46'0 0.0
2018-Jun-23 18:30S 32°54' E 151°46'0 0.0
2018-Jun-23 18:00S 32°54' E 151°46'0 0.0
2018-Jun-23 17:24S 32°54' E 151°46'0 0.0
2018-Jun-23 17:00S 32°54' E 151°46'0 0.0
2018-Jun-23 16:30S 32°54' E 151°46'0 0.0
2018-Jun-23 16:00S 32°54' E 151°46'0 0.0
2018-Jun-23 15:27S 32°54' E 151°46'0 0.0
2018-Jun-23 15:00S 32°54' E 151°46'1 1.6
2018-Jun-23 14:30S 32°53' E 151°46'2 3.9
2018-Jun-23 14:00S 32°55' E 151°47'4 8.4
2018-Jun-23 13:30S 32°57' E 151°52'2 4.7
2018-Jun-23 13:00S 32°59' E 151°52'4 8.6
2018-Jun-23 12:30S 33°02' E 151°48'1 1.5
2018-Jun-23 11:42S 33°03' E 151°47'0 0.1
2018-Jun-23 11:30S 33°03' E 151°47'0 0.0
2018-Jun-23 10:57S 33°03' E 151°47'0 0.1
2018-Jun-23 10:06S 33°03' E 151°47'0 0.1
2018-Jun-23 10:00S 33°03' E 151°47'0 0.0
2018-Jun-23 09:12S 33°03' E 151°47'0 0.0
2018-Jun-23 08:45S 33°03' E 151°47'0 0.0
2018-Jun-23 08:30S 33°03' E 151°47'0 0.0
2018-Jun-23 08:00S 33°03' E 151°47'0 0.0
2018-Jun-23 07:27S 33°03' E 151°47'0 0.0
2018-Jun-23 07:00S 33°03' E 151°47'0 0.0
2018-Jun-23 06:30S 33°03' E 151°47'0 0.0
2018-Jun-23 06:00S 33°03' E 151°47'0 0.0
2018-Jun-23 05:27S 33°03' E 151°47'0 0.0
2018-Jun-23 05:00S 33°03' E 151°47'0 0.0
2018-Jun-23 04:30S 33°03' E 151°47'0 0.0
2018-Jun-23 04:00S 33°03' E 151°47'0 0.1
2018-Jun-23 03:30S 33°03' E 151°47'0 0.2
2018-Jun-23 03:00S 33°03' E 151°47'0 0.1
2018-Jun-23 02:30S 33°03' E 151°47'0 0.0
2018-Jun-23 01:54S 33°03' E 151°47'0 0.0
2018-Jun-23 01:30S 33°03' E 151°47'0 0.1
2018-Jun-23 00:57S 33°03' E 151°47'0 0.0
2018-Jun-23 00:27S 33°03' E 151°47'0 0.1
2018-Jun-23 00:00S 33°03' E 151°47'0 0.2
2018-Jun-22 23:30S 33°03' E 151°47'0 0.1
2018-Jun-22 22:57S 33°03' E 151°47'0 0.0
2018-Jun-22 22:24S 33°03' E 151°47'0 0.1
2018-Jun-22 21:57S 33°03' E 151°47'0 0.0
2018-Jun-22 21:30S 33°03' E 151°47'0 0.1
2018-Jun-22 21:00S 33°03' E 151°47'0 0.0
2018-Jun-22 20:30S 33°03' E 151°47'0 0.1
2018-Jun-22 20:00S 33°03' E 151°47'0 0.0
2018-Jun-22 19:30S 33°03' E 151°47'0 0.1
2018-Jun-22 19:00S 33°03' E 151°47'1 2.3
2018-Jun-22 18:31S 33°02' E 151°49'510.5
2018-Jun-22 18:00S 32°58' E 151°53'714.0
2018-Jun-22 17:30S 32°57' E 152°01'714.2
2018-Jun-22 17:01S 32°56' E 152°09'713.8
2018-Jun-22 16:30S 32°56' E 152°17'713.5
2018-Jun-22 16:01S 32°54' E 152°25'713.3
2018-Jun-22 15:30S 32°52' E 152°33'612.6
2018-Jun-22 15:01S 32°49' E 152°39'612.2
2018-Jun-22 14:30S 32°46' E 152°45'612.0
2018-Jun-22 14:00S 32°41' E 152°50'612.6
2018-Jun-22 13:30S 32°36' E 152°54'  

Dump ship's entire track history